createdAt,value
2022-09-12T00:00:44.627Z,16.95
2022-09-12T00:03:11.053Z,16.20
2022-09-12T00:05:42.457Z,17.80
2022-09-12T00:08:08.985Z,12.83
2022-09-12T00:10:43.689Z,13.45
2022-09-12T00:13:10.721Z,15.52
2022-09-12T00:15:44.552Z,16.10
2022-09-12T00:21:58.741Z,15.98
2022-09-12T00:28:13.023Z,14.93
2022-09-12T00:30:43.475Z,14.57
2022-09-12T00:33:10.905Z,15.18
2022-09-12T00:35:48.799Z,16.55
2022-09-12T00:38:16.549Z,16.58
2022-09-12T00:40:43.527Z,16.13
2022-09-12T00:43:13.777Z,15.90
2022-09-12T00:45:42.490Z,13.95
2022-09-12T00:48:19.335Z,14.98
2022-09-12T00:50:45.787Z,14.40
2022-09-12T00:57:03.156Z,14.32
2022-09-12T00:59:32.760Z,14.63
2022-09-12T01:01:59.241Z,15.35
2022-09-12T01:04:26.411Z,15.45
2022-09-12T01:06:53.491Z,16.35
2022-09-12T01:09:22.157Z,15.30
2022-09-12T01:11:49.420Z,15.57
2022-09-12T01:14:17.143Z,14.55
2022-09-12T01:16:45.122Z,14.38
2022-09-12T01:19:31.761Z,14.65
2022-09-12T01:22:22.954Z,13.50
2022-09-12T01:25:12.553Z,15.05
2022-09-12T01:27:53.443Z,15.00
2022-09-12T01:30:32.224Z,14.63
2022-09-12T01:33:20.506Z,15.70
2022-09-12T01:36:02.154Z,14.93
2022-09-12T01:38:39.646Z,14.32
2022-09-12T01:41:30.542Z,15.35
2022-09-12T01:44:38.539Z,15.93
2022-09-12T01:47:18.540Z,15.90
2022-09-12T01:49:50.213Z,14.30
2022-09-12T01:52:26.668Z,15.32
2022-09-12T01:55:09.622Z,13.82
2022-09-12T01:57:45.739Z,13.90
2022-09-12T02:00:12.944Z,13.15
2022-09-12T02:02:42.170Z,13.45
2022-09-12T02:05:12.647Z,14.50
2022-09-12T02:07:43.959Z,14.90
2022-09-12T02:10:17.047Z,16.37
2022-09-12T02:12:50.569Z,15.43
2022-09-12T02:15:19.319Z,17.08
2022-09-12T02:21:27.518Z,14.88
2022-09-12T02:23:57.493Z,15.48
2022-09-12T02:26:29.989Z,14.45
2022-09-12T02:28:57.575Z,13.00
2022-09-12T02:31:47.007Z,11.07
2022-09-12T02:34:16.449Z,13.18
2022-09-12T02:37:16.244Z,15.55
2022-09-12T02:39:45.380Z,13.30
2022-09-12T02:42:12.627Z,14.73
2022-09-12T02:44:39.407Z,16.23
2022-09-12T02:47:10.075Z,14.75
2022-09-12T02:49:36.817Z,15.70
2022-09-12T02:52:03.491Z,14.57
2022-09-12T02:54:30.504Z,15.00
2022-09-12T02:56:56.949Z,13.80
2022-09-12T02:59:24.574Z,14.50
2022-09-12T03:01:54.043Z,14.63
2022-09-12T03:04:38.634Z,13.55
2022-09-12T03:07:14.075Z,14.35
2022-09-12T03:10:02.410Z,14.23
2022-09-12T03:12:44.134Z,14.90
2022-09-12T03:19:19.816Z,12.18
2022-09-12T03:21:54.919Z,11.45
2022-09-12T03:24:30.966Z,13.00
2022-09-12T03:27:09.576Z,11.60
2022-09-12T03:29:37.612Z,12.13
2022-09-12T03:32:04.378Z,13.02
2022-09-12T03:34:30.803Z,12.75
2022-09-12T03:36:57.276Z,13.82
2022-09-12T03:39:24.650Z,14.02
2022-09-12T03:41:51.560Z,16.35
2022-09-12T03:44:18.396Z,16.13
2022-09-12T03:46:45.185Z,16.75
2022-09-12T03:49:12.040Z,17.00
2022-09-12T03:51:39.354Z,17.90
2022-09-12T03:57:46.574Z,14.65
2022-09-12T04:00:17.637Z,15.77
2022-09-12T04:02:46.058Z,16.73
2022-09-12T04:05:12.450Z,12.02
2022-09-12T04:07:38.881Z,11.30
2022-09-12T04:10:05.786Z,13.93
2022-09-12T04:12:32.181Z,10.48
2022-09-12T04:15:22.526Z,21.15
2022-09-12T04:17:48.949Z,17.63
2022-09-12T04:20:15.626Z,15.48
2022-09-12T04:22:42.083Z,20.33
2022-09-12T04:25:09.499Z,19.05
2022-09-12T04:27:35.942Z,23.00
2022-09-12T04:30:16.850Z,21.15
2022-09-12T04:32:43.276Z,19.80
2022-09-12T04:35:11.211Z,23.02
2022-09-12T04:37:37.603Z,21.05
2022-09-12T04:43:58.158Z,22.92
2022-09-12T04:46:25.622Z,22.92
2022-09-12T04:48:56.676Z,26.23
2022-09-12T04:51:29.602Z,26.83
2022-09-12T04:57:36.686Z,23.83
2022-09-12T05:00:07.333Z,22.58
2022-09-12T05:02:34.557Z,25.00
2022-09-12T05:05:01.008Z,25.02
2022-09-12T05:07:27.405Z,21.48
2022-09-12T05:09:55.520Z,23.92
2022-09-12T05:12:21.992Z,22.85
2022-09-12T05:14:48.445Z,20.95
2022-09-12T05:17:14.852Z,22.17
2022-09-12T05:19:41.531Z,21.20
2022-09-12T05:22:11.071Z,22.30
2022-09-12T05:24:39.394Z,22.85
2022-09-12T05:31:19.067Z,21.20
2022-09-12T05:33:47.760Z,21.90
2022-09-12T05:36:17.688Z,21.70
2022-09-12T05:38:45.020Z,21.52
2022-09-12T05:41:25.030Z,21.50
2022-09-12T05:43:53.611Z,21.60
2022-09-12T05:46:22.062Z,21.75
2022-09-12T05:48:55.055Z,20.73
2022-09-12T05:51:25.373Z,19.88
2022-09-12T05:54:00.776Z,20.77
2022-09-12T05:56:29.015Z,19.08
2022-09-12T05:58:59.064Z,20.00
2022-09-12T06:01:27.309Z,19.10
2022-09-12T06:07:41.208Z,17.10
2022-09-12T06:10:08.307Z,16.95
2022-09-12T06:12:34.710Z,18.05
2022-09-12T06:15:01.147Z,18.95
2022-09-12T06:17:27.610Z,17.00
2022-09-12T06:19:54.105Z,17.33
2022-09-12T06:22:21.013Z,16.90
2022-09-12T06:24:47.415Z,17.73
2022-09-12T06:27:13.834Z,15.88
2022-09-12T06:29:40.247Z,15.05
2022-09-12T06:32:07.165Z,16.23
2022-09-12T06:34:33.824Z,16.50
2022-09-12T06:37:00.295Z,16.05
2022-09-12T06:39:26.694Z,15.85
2022-09-12T06:41:53.131Z,16.23
2022-09-12T06:44:21.891Z,15.98
2022-09-12T06:46:48.790Z,17.10
2022-09-12T06:49:15.430Z,16.67
2022-09-12T06:51:42.579Z,16.30
2022-09-12T06:54:10.641Z,16.63
2022-09-12T06:56:37.664Z,17.65
2022-09-12T06:59:04.075Z,17.95
2022-09-12T07:01:32.213Z,18.88
2022-09-12T07:04:03.806Z,18.80
2022-09-12T07:06:35.394Z,17.90
2022-09-12T07:09:05.845Z,17.42
2022-09-12T07:11:34.834Z,16.52
2022-09-12T07:14:03.022Z,15.23
2022-09-12T07:16:30.349Z,14.82
2022-09-12T07:18:58.952Z,14.75
2022-09-12T07:21:25.813Z,14.63
2022-09-12T07:23:52.779Z,14.88
2022-09-12T07:26:19.231Z,13.80
2022-09-12T07:28:45.817Z,13.70
2022-09-12T07:31:15.319Z,15.23
2022-09-12T07:33:42.602Z,13.02
2022-09-12T07:36:14.656Z,13.65
2022-09-12T07:38:41.661Z,14.32
2022-09-12T07:41:11.874Z,13.35
2022-09-12T07:43:38.289Z,12.88
2022-09-12T07:46:04.971Z,11.88
2022-09-12T07:48:31.409Z,12.80
2022-09-12T07:50:59.781Z,11.85
2022-09-12T07:53:27.306Z,12.23
2022-09-12T07:55:55.423Z,13.40
2022-09-12T07:58:23.205Z,14.57
2022-09-12T08:00:50.389Z,13.02
2022-09-12T08:03:17.031Z,12.40
2022-09-12T08:05:43.593Z,12.02
2022-09-12T08:08:10.194Z,12.90
2022-09-12T08:10:36.867Z,13.90
2022-09-12T08:13:03.738Z,11.77
2022-09-12T08:15:31.153Z,12.77
2022-09-12T08:17:57.621Z,11.73
2022-09-12T08:20:28.117Z,10.98
2022-09-12T08:22:54.859Z,12.00
2022-09-12T08:25:21.598Z,11.10
2022-09-12T08:27:48.331Z,11.45
2022-09-12T08:30:14.863Z,11.07
2022-09-12T08:32:41.323Z,10.75
2022-09-12T08:35:08.063Z,10.40
2022-09-12T08:37:34.492Z,10.75
2022-09-12T08:40:01.006Z,10.13
2022-09-12T08:42:50.711Z,10.93
2022-09-12T08:45:28.268Z,10.57
2022-09-12T08:47:56.196Z,10.23
2022-09-12T08:50:22.763Z,10.40
2022-09-12T08:52:53.148Z,9.85
2022-09-12T08:55:33.737Z,9.55
2022-09-12T08:58:20.105Z,9.95
2022-09-12T09:01:08.761Z,9.40
2022-09-12T09:04:02.689Z,8.80
2022-09-12T09:06:35.055Z,10.77
2022-09-12T09:09:07.648Z,9.73
2022-09-12T09:11:49.236Z,8.73
2022-09-12T09:14:43.348Z,10.05
2022-09-12T09:17:14.526Z,8.55
2022-09-12T09:19:50.786Z,9.77
2022-09-12T09:22:28.882Z,8.68
2022-09-12T09:25:00.076Z,8.50
2022-09-12T09:27:41.020Z,9.43
2022-09-12T09:30:16.908Z,9.97
2022-09-12T09:32:45.717Z,9.35
2022-09-12T09:35:19.457Z,8.88
2022-09-12T09:37:59.164Z,9.07
2022-09-12T09:40:35.882Z,9.82
2022-09-12T09:43:28.888Z,9.18
2022-09-12T09:45:57.071Z,8.95
2022-09-12T09:48:44.646Z,10.13
2022-09-12T09:51:11.875Z,8.57
2022-09-12T09:53:47.706Z,9.05
2022-09-12T09:56:33.826Z,9.25
2022-09-12T09:59:12.568Z,7.97
2022-09-12T10:01:49.766Z,8.88
2022-09-12T10:04:29.399Z,8.50
2022-09-12T10:07:01.228Z,8.80
2022-09-12T10:09:29.612Z,8.57
2022-09-12T10:11:57.136Z,8.50
2022-09-12T10:14:33.524Z,7.75
2022-09-12T10:16:59.966Z,7.63
2022-09-12T10:19:42.914Z,7.00
2022-09-12T10:22:18.452Z,6.70
2022-09-12T10:24:50.550Z,6.95
2022-09-12T10:27:21.011Z,6.00
2022-09-12T10:29:55.909Z,5.80
2022-09-12T10:32:31.765Z,6.53
2022-09-12T10:35:04.014Z,5.80
2022-09-12T10:37:33.495Z,5.47
2022-09-12T10:40:00.923Z,5.45
2022-09-12T10:42:47.686Z,5.32
2022-09-12T10:45:24.740Z,4.68
2022-09-12T10:47:55.346Z,4.60
2022-09-12T10:50:23.909Z,4.43
2022-09-12T10:52:50.793Z,4.53
2022-09-12T10:55:17.613Z,4.88
2022-09-12T10:58:05.014Z,4.10
2022-09-12T11:00:37.560Z,4.78
2022-09-12T11:03:16.140Z,4.00
2022-09-12T11:05:55.166Z,4.85
2022-09-12T11:08:41.895Z,4.57
2022-09-12T11:11:28.366Z,3.80
2022-09-12T11:14:23.031Z,3.60
2022-09-12T11:17:01.294Z,3.60
2022-09-12T11:19:34.433Z,3.58
2022-09-12T11:22:31.912Z,3.72
2022-09-12T11:25:11.921Z,4.18
2022-09-12T11:28:00.196Z,3.38
2022-09-12T11:34:17.885Z,3.50
2022-09-12T11:37:10.447Z,3.15
2022-09-12T11:39:44.570Z,3.00
2022-09-12T11:42:22.573Z,2.83
2022-09-12T11:45:13.722Z,3.00
2022-09-12T11:47:40.858Z,3.05
2022-09-12T11:50:27.909Z,3.47
2022-09-12T11:52:58.161Z,3.00
2022-09-12T11:55:28.242Z,2.95
2022-09-12T11:57:56.593Z,2.83
2022-09-12T12:00:36.690Z,2.90
2022-09-12T12:03:21.169Z,2.80
2022-09-12T12:06:06.909Z,2.58
2022-09-12T12:08:39.386Z,2.25
2022-09-12T12:11:06.583Z,2.55
2022-09-12T12:13:47.800Z,2.30
2022-09-12T12:16:23.310Z,2.10
2022-09-12T12:18:58.428Z,2.28
2022-09-12T12:21:31.680Z,2.20
2022-09-12T12:24:07.125Z,2.22
2022-09-12T12:26:39.670Z,1.92
2022-09-12T12:32:46.670Z,1.90
2022-09-12T12:35:40.407Z,2.20
2022-09-12T12:38:35.647Z,2.28
2022-09-12T12:41:17.160Z,2.40
2022-09-12T12:43:51.442Z,2.05
2022-09-12T12:46:22.696Z,2.10
2022-09-12T12:51:27.864Z,2.20
2022-09-12T12:53:54.442Z,1.90
2022-09-12T12:56:27.843Z,2.00
2022-09-12T12:59:03.353Z,2.55
2022-09-12T13:01:30.440Z,2.40
2022-09-12T13:04:01.322Z,2.45
2022-09-12T13:06:36.395Z,2.10
2022-09-12T13:09:06.977Z,2.05
2022-09-12T13:11:35.834Z,2.35
2022-09-12T13:14:04.803Z,2.10
2022-09-12T13:16:39.851Z,2.33
2022-09-12T13:19:18.376Z,2.03
2022-09-12T13:22:00.569Z,1.80
2022-09-12T13:24:27.185Z,1.70
2022-09-12T13:26:54.618Z,1.70
2022-09-12T13:29:25.521Z,1.50
2022-09-12T13:31:59.652Z,2.13
2022-09-12T13:34:31.857Z,1.90
2022-09-12T13:37:26.222Z,1.50
2022-09-12T13:40:11.609Z,1.50
2022-09-12T13:42:42.761Z,1.80
2022-09-12T13:45:13.606Z,1.88
2022-09-12T13:47:43.027Z,1.90
2022-09-12T13:50:23.667Z,1.90
2022-09-12T13:52:53.722Z,1.90
2022-09-12T13:55:25.657Z,1.85
2022-09-12T13:58:03.841Z,1.60
2022-09-12T14:00:32.135Z,2.03
2022-09-12T14:03:18.186Z,1.90
2022-09-12T14:05:46.770Z,2.28
2022-09-12T14:08:14.938Z,2.10
2022-09-12T14:10:45.182Z,2.08
2022-09-12T14:13:16.924Z,2.30
2022-09-12T14:15:49.076Z,2.70
2022-09-12T14:18:27.340Z,2.60
2022-09-12T14:21:00.808Z,2.60
2022-09-12T14:23:32.147Z,2.47
2022-09-12T14:26:02.468Z,2.55
2022-09-12T14:28:30.230Z,2.17
2022-09-12T14:31:12.815Z,2.50
2022-09-12T14:33:56.947Z,2.33
2022-09-12T14:36:34.328Z,2.30
2022-09-12T14:39:06.148Z,2.58
2022-09-12T14:41:39.102Z,2.30
2022-09-12T14:44:08.535Z,1.98
2022-09-12T14:46:36.464Z,2.15
2022-09-12T14:49:10.335Z,2.58
2022-09-12T14:51:39.038Z,2.28
2022-09-12T14:54:05.738Z,2.15
2022-09-12T14:56:44.024Z,2.78
2022-09-12T14:59:40.713Z,2.50
2022-09-12T15:02:13.320Z,2.38
2022-09-12T15:04:50.445Z,2.30
2022-09-12T15:07:34.590Z,2.50
2022-09-12T15:10:05.314Z,2.50
2022-09-12T15:12:32.061Z,2.50
2022-09-12T15:15:13.423Z,2.58
2022-09-12T15:17:39.814Z,2.10
2022-09-12T15:20:06.851Z,2.75
2022-09-12T15:22:33.817Z,1.98
2022-09-12T15:25:00.495Z,2.28
2022-09-12T15:27:26.981Z,2.30
2022-09-12T15:29:53.953Z,2.40
2022-09-12T15:32:29.369Z,2.30
2022-09-12T15:34:56.040Z,2.35
2022-09-12T15:37:24.143Z,2.20
2022-09-12T15:43:37.912Z,2.33
2022-09-12T15:46:06.704Z,2.30
2022-09-12T15:48:33.458Z,2.25
2022-09-12T15:54:41.036Z,2.40
2022-09-12T15:57:07.930Z,2.25
2022-09-12T15:59:34.355Z,2.28
2022-09-12T16:02:01.202Z,2.38
2022-09-12T16:04:29.298Z,2.20
2022-09-12T16:06:56.663Z,2.20
2022-09-12T16:09:24.012Z,1.95
2022-09-12T16:11:50.784Z,1.88
2022-09-12T16:14:18.541Z,1.92
2022-09-12T16:16:52.122Z,2.05
2022-09-12T16:19:18.586Z,2.22
2022-09-12T16:21:45.000Z,1.92
2022-09-12T16:24:11.757Z,1.92
2022-09-12T16:26:38.360Z,1.85
2022-09-12T16:32:52.263Z,2.00
2022-09-12T16:38:59.373Z,2.00
2022-09-12T16:41:26.288Z,2.30
2022-09-12T16:43:53.233Z,1.98
2022-09-12T16:46:22.054Z,2.35
2022-09-12T16:48:52.436Z,2.05
2022-09-12T16:51:22.130Z,2.25
2022-09-12T16:53:49.118Z,2.10
2022-09-12T16:56:15.560Z,2.10
2022-09-12T16:58:42.865Z,2.20
2022-09-12T17:01:14.897Z,1.95
2022-09-12T17:03:41.848Z,2.10
2022-09-12T17:06:18.025Z,2.30
2022-09-12T17:08:46.841Z,1.80
2022-09-12T17:11:18.694Z,1.92
2022-09-12T17:17:31.928Z,2.30
2022-09-12T17:19:58.459Z,2.20
2022-09-12T17:22:24.898Z,2.47
2022-09-12T17:24:51.413Z,2.50
2022-09-12T17:27:17.862Z,2.20
2022-09-12T17:29:44.398Z,2.60
2022-09-12T17:32:14.405Z,2.47
2022-09-12T17:34:43.345Z,2.72
2022-09-12T17:37:09.919Z,2.65
2022-09-12T17:43:24.132Z,2.60
2022-09-12T17:45:56.478Z,2.45
2022-09-12T17:48:23.250Z,3.50
2022-09-12T17:50:50.629Z,2.97
2022-09-12T17:53:17.892Z,2.88
2022-09-12T17:56:40.615Z,2.72
2022-09-12T17:59:08.622Z,2.92
2022-09-12T18:01:53.730Z,2.63
2022-09-12T18:04:20.435Z,3.58
2022-09-12T18:06:50.326Z,2.50
2022-09-12T18:13:03.899Z,2.63
2022-09-12T18:15:31.093Z,3.45
2022-09-12T18:17:57.499Z,5.90
2022-09-12T18:20:23.906Z,9.07
2022-09-12T18:22:50.357Z,3.83
2022-09-12T18:25:16.856Z,4.20
2022-09-12T18:27:43.384Z,4.05
2022-09-12T18:30:20.976Z,3.58
2022-09-12T18:32:47.813Z,3.78
2022-09-12T18:35:14.321Z,3.10
2022-09-12T18:37:41.442Z,3.40
2022-09-12T18:40:08.228Z,3.15
2022-09-12T18:42:34.782Z,3.67
2022-09-12T18:45:01.288Z,3.28
2022-09-12T18:47:27.757Z,3.83
2022-09-12T18:49:54.493Z,3.70
2022-09-12T18:56:08.580Z,4.93
2022-09-12T18:58:40.653Z,4.00
2022-09-12T19:03:37.245Z,4.07
2022-09-12T19:06:27.738Z,4.55
2022-09-12T19:08:56.183Z,4.15
2022-09-12T19:11:23.867Z,4.32
2022-09-12T19:17:36.965Z,4.15
2022-09-12T19:20:04.528Z,3.88
2022-09-12T19:22:30.931Z,3.90
2022-09-12T19:24:57.366Z,3.92
2022-09-12T19:27:23.822Z,4.78
2022-09-12T19:33:37.761Z,4.25
2022-09-12T19:36:13.854Z,4.10
2022-09-12T19:38:53.139Z,4.43
2022-09-12T19:41:20.282Z,4.70
2022-09-12T19:43:46.666Z,4.07
2022-09-12T19:46:16.218Z,4.45
2022-09-12T19:48:42.651Z,4.93
2022-09-12T19:51:09.069Z,4.82
2022-09-12T19:53:35.514Z,4.93
2022-09-12T19:56:04.363Z,4.57
2022-09-12T20:02:18.455Z,5.10
2022-09-12T20:04:47.334Z,5.28
2022-09-12T20:07:13.705Z,4.75
2022-09-12T20:09:40.099Z,4.75
2022-09-12T20:15:47.313Z,5.13
2022-09-12T20:18:14.025Z,4.93
2022-09-12T20:20:40.422Z,4.95
2022-09-12T20:23:06.798Z,5.05
2022-09-12T20:25:33.223Z,4.78
2022-09-12T20:28:00.340Z,4.80
2022-09-12T20:34:16.460Z,4.60
2022-09-12T20:36:42.883Z,5.15
2022-09-12T20:42:57.012Z,4.45
2022-09-12T20:45:23.423Z,5.38
2022-09-12T20:47:49.828Z,4.90
2022-09-12T20:50:16.473Z,5.15
2022-09-12T20:52:42.859Z,5.53
2022-09-12T20:55:12.706Z,5.40
2022-09-12T20:57:39.138Z,5.55
2022-09-12T21:03:53.173Z,4.65
2022-09-12T21:06:20.393Z,5.18
2022-09-12T21:08:48.162Z,5.28
2022-09-12T21:11:15.118Z,4.70
2022-09-12T21:13:41.741Z,5.30
2022-09-12T21:16:16.818Z,4.90
2022-09-12T21:18:43.377Z,5.82
2022-09-12T21:21:11.222Z,5.45
2022-09-12T21:23:37.838Z,5.82
2022-09-12T21:26:04.610Z,6.10
2022-09-12T21:28:31.395Z,5.68
2022-09-12T21:30:58.093Z,5.45
2022-09-12T21:33:24.875Z,5.38
2022-09-12T21:35:51.268Z,6.00
2022-09-12T21:38:18.937Z,5.32
2022-09-12T21:40:46.657Z,6.07
2022-09-12T21:43:13.642Z,5.72
2022-09-12T21:45:40.382Z,6.00
2022-09-12T21:48:06.948Z,5.90
2022-09-12T21:50:33.349Z,6.00
2022-09-12T21:52:59.818Z,6.10
2022-09-12T21:55:27.215Z,5.85
2022-09-12T21:57:54.710Z,5.57
2022-09-12T22:00:21.979Z,5.50
2022-09-12T22:02:48.830Z,5.40
2022-09-12T22:05:16.109Z,4.80
2022-09-12T22:07:42.540Z,4.93
2022-09-12T22:10:09.378Z,4.63
2022-09-12T22:12:35.827Z,4.80
2022-09-12T22:15:17.535Z,4.35
2022-09-12T22:17:48.637Z,5.22
2022-09-12T22:20:15.078Z,4.72
2022-09-12T22:23:00.003Z,4.97
2022-09-12T22:25:26.560Z,5.30
2022-09-12T22:27:54.005Z,5.38
2022-09-12T22:30:21.742Z,4.97
2022-09-12T22:32:49.894Z,5.07
2022-09-12T22:35:17.070Z,5.28
2022-09-12T22:37:43.544Z,4.97
2022-09-12T22:40:11.675Z,5.30
2022-09-12T22:42:38.301Z,4.32
2022-09-12T22:45:05.842Z,5.35
2022-09-12T22:47:32.265Z,4.82
2022-09-12T22:49:58.823Z,5.10
2022-09-12T22:52:25.199Z,5.20
2022-09-12T22:54:52.027Z,5.05
2022-09-12T22:57:18.441Z,5.00
2022-09-12T22:59:44.836Z,5.30
2022-09-12T23:02:11.213Z,5.30
2022-09-12T23:04:37.737Z,5.07
2022-09-12T23:07:04.175Z,5.43
2022-09-12T23:09:35.150Z,5.22
2022-09-12T23:12:02.056Z,4.60
2022-09-12T23:14:28.440Z,5.63
2022-09-12T23:16:54.859Z,4.63
2022-09-12T23:19:21.251Z,5.15
2022-09-12T23:21:47.666Z,4.40
2022-09-12T23:24:14.522Z,4.93
2022-09-12T23:30:28.547Z,4.28
2022-09-12T23:32:56.231Z,4.50
2022-09-12T23:35:22.714Z,4.65
2022-09-12T23:37:49.078Z,4.18
2022-09-12T23:40:15.583Z,4.32
2022-09-12T23:42:42.072Z,4.80
2022-09-12T23:45:08.916Z,4.13
2022-09-12T23:47:35.304Z,4.80
2022-09-12T23:50:01.737Z,4.60
2022-09-12T23:52:28.302Z,4.20
2022-09-12T23:54:54.715Z,4.55
2022-09-12T23:57:21.115Z,4.85
2022-09-12T23:59:47.522Z,3.65
